Аэропорт: Николаев. Николаев

ICAO: UKON

METAR:
Информация по данной станции не доступна
METAR:
2019-07-23 11:03:00
TAF UKON 231103Z 2312/2321 35006G12MPS 9999 SCT025CB TX30/2313Z TN24/2321Z TEMPO 2312/2321 VRB10G19MPS 0500 +TSRAGR SQ VV002